createdAt,value
2022-11-02T00:02:15.083Z,13.09
2022-11-02T00:08:07.249Z,13.04
2022-11-02T00:10:41.208Z,13.10
2022-11-02T00:13:40.686Z,13.09
2022-11-02T00:16:31.109Z,13.06
2022-11-02T00:22:30.759Z,13.08
2022-11-02T00:25:16.446Z,12.93
2022-11-02T00:27:53.284Z,12.97
2022-11-02T00:30:42.045Z,12.92
2022-11-02T00:36:44.313Z,12.72
2022-11-02T00:39:23.873Z,12.62
2022-11-02T00:42:00.722Z,12.53
2022-11-02T00:44:55.272Z,12.47
2022-11-02T00:47:42.205Z,12.38
2022-11-02T00:50:15.736Z,12.13
2022-11-02T00:53:10.501Z,12.04
2022-11-02T00:55:45.440Z,11.97
2022-11-02T00:58:52.221Z,11.98
2022-11-02T01:01:42.203Z,11.94
2022-11-02T01:04:23.771Z,11.91
2022-11-02T01:07:40.345Z,11.86
2022-11-02T01:10:13.370Z,11.79
2022-11-02T01:13:11.134Z,11.86
2022-11-02T01:15:43.462Z,11.84
2022-11-02T01:18:21.715Z,11.77
2022-11-02T01:21:48.622Z,11.77
2022-11-02T01:24:34.764Z,11.74
2022-11-02T01:27:15.693Z,11.71
2022-11-02T01:30:20.196Z,11.74
2022-11-02T01:32:54.520Z,11.68
2022-11-02T01:35:30.546Z,11.59
2022-11-02T01:38:12.219Z,11.67
2022-11-02T01:40:52.016Z,11.65
2022-11-02T01:43:42.644Z,11.57
2022-11-02T01:49:39.896Z,11.49
2022-11-02T01:52:49.311Z,11.50
2022-11-02T01:58:38.478Z,11.41
2022-11-02T02:01:21.105Z,11.39
2022-11-02T02:04:03.442Z,11.37
2022-11-02T02:06:52.143Z,11.37
2022-11-02T02:09:30.354Z,11.25
2022-11-02T02:15:18.148Z,11.11
2022-11-02T02:18:22.392Z,11.07
2022-11-02T02:21:33.209Z,10.87
2022-11-02T02:24:21.613Z,11.00
2022-11-02T02:27:32.621Z,11.06
2022-11-02T02:30:16.687Z,11.09
2022-11-02T02:33:04.028Z,11.21
2022-11-02T02:36:37.695Z,11.16
2022-11-02T02:39:47.624Z,11.15
2022-11-02T02:42:57.994Z,11.06
2022-11-02T02:45:58.350Z,11.04
2022-11-02T02:49:11.075Z,11.04
2022-11-02T02:52:04.883Z,11.14
2022-11-02T02:55:16.047Z,11.15
2022-11-02T02:58:10.717Z,11.16
2022-11-02T03:01:19.422Z,11.18
2022-11-02T03:04:05.602Z,11.09
2022-11-02T03:07:08.169Z,11.15
2022-11-02T03:10:26.965Z,11.07
2022-11-02T03:17:38.181Z,11.00
2022-11-02T03:20:41.437Z,11.03
2022-11-02T03:23:37.480Z,11.06
2022-11-02T03:26:40.966Z,11.07
2022-11-02T03:33:32.438Z,10.88
2022-11-02T03:37:18.371Z,10.78
2022-11-02T03:40:00.656Z,10.85
2022-11-02T03:42:44.361Z,10.89
2022-11-02T03:45:20.625Z,10.90
2022-11-02T03:48:06.401Z,10.81
2022-11-02T03:51:14.211Z,10.75
2022-11-02T03:54:53.240Z,10.70
2022-11-02T03:58:10.907Z,10.59
2022-11-02T04:01:23.032Z,10.52
2022-11-02T04:04:06.974Z,10.48
2022-11-02T04:06:47.292Z,10.35
2022-11-02T04:09:34.455Z,10.44
2022-11-02T04:12:35.955Z,10.43
2022-11-02T04:15:18.920Z,10.30
2022-11-02T04:18:19.741Z,10.20
2022-11-02T04:21:30.313Z,10.28
2022-11-02T04:24:36.157Z,10.25
2022-11-02T04:27:21.325Z,10.34
2022-11-02T04:30:22.345Z,10.27
2022-11-02T04:33:42.071Z,10.23
2022-11-02T04:36:20.001Z,10.06
2022-11-02T04:39:08.215Z,10.00
2022-11-02T04:42:37.719Z,9.91
2022-11-02T04:45:24.846Z,9.89
2022-11-02T04:48:16.640Z,9.88
2022-11-02T04:50:52.498Z,9.67
2022-11-02T04:53:24.187Z,9.62
2022-11-02T04:56:02.510Z,9.69
2022-11-02T04:58:42.381Z,9.64
2022-11-02T05:01:27.640Z,9.50
2022-11-02T05:04:23.295Z,9.55
2022-11-02T05:07:21.028Z,9.63
2022-11-02T05:10:03.514Z,9.67
2022-11-02T05:13:06.035Z,9.64
2022-11-02T05:16:01.508Z,9.32
2022-11-02T05:18:32.274Z,9.34
2022-11-02T05:21:12.367Z,9.29
2022-11-02T05:23:53.003Z,9.28
2022-11-02T05:26:30.017Z,9.38
2022-11-02T05:29:04.450Z,9.40
2022-11-02T05:31:53.401Z,9.37
2022-11-02T05:34:30.495Z,9.36
2022-11-02T05:37:05.288Z,9.35
2022-11-02T05:39:49.367Z,9.37
2022-11-02T05:42:26.567Z,9.42
2022-11-02T05:45:09.862Z,9.49
2022-11-02T05:47:47.159Z,9.40
2022-11-02T05:50:24.992Z,9.37
2022-11-02T05:52:58.213Z,9.25
2022-11-02T05:55:38.422Z,9.51
2022-11-02T05:58:29.866Z,9.58
2022-11-02T06:01:04.382Z,9.57
2022-11-02T06:03:48.991Z,9.49
2022-11-02T06:06:27.434Z,9.46
2022-11-02T06:09:23.849Z,9.46
2022-11-02T06:12:00.692Z,9.46
2022-11-02T06:14:35.112Z,9.34
2022-11-02T06:17:07.646Z,9.49
2022-11-02T06:19:53.341Z,9.46
2022-11-02T06:23:10.227Z,9.43
2022-11-02T06:25:48.045Z,9.29
2022-11-02T06:28:25.497Z,9.30
2022-11-02T06:30:57.553Z,9.31
2022-11-02T06:33:31.414Z,9.37
2022-11-02T06:36:04.545Z,9.37
2022-11-02T06:38:38.683Z,9.47
2022-11-02T06:41:08.630Z,9.49
2022-11-02T06:43:48.001Z,9.44
2022-11-02T06:46:30.175Z,9.47
2022-11-02T06:49:06.566Z,9.39
2022-11-02T06:51:51.267Z,9.43
2022-11-02T06:54:47.695Z,9.25
2022-11-02T06:57:42.798Z,9.40
2022-11-02T07:00:25.535Z,9.48
2022-11-02T07:03:21.943Z,9.60
2022-11-02T07:05:59.768Z,9.51
2022-11-02T07:08:52.251Z,9.52
2022-11-02T07:12:26.545Z,9.50
2022-11-02T07:15:33.963Z,9.58
2022-11-02T07:18:11.402Z,9.52
2022-11-02T07:20:55.630Z,9.45
2022-11-02T07:23:31.761Z,9.27
2022-11-02T07:29:47.366Z,9.03
2022-11-02T07:32:45.100Z,9.17
2022-11-02T07:35:51.448Z,9.21
2022-11-02T07:39:09.474Z,9.55
2022-11-02T07:42:03.263Z,9.04
2022-11-02T07:49:21.225Z,9.26
2022-11-02T07:51:58.621Z,9.37
2022-11-02T07:54:53.710Z,9.13
2022-11-02T07:57:28.710Z,9.14
2022-11-02T08:00:59.697Z,9.34
2022-11-02T08:03:41.192Z,9.40
2022-11-02T08:06:11.627Z,9.48
2022-11-02T08:08:44.754Z,9.38
2022-11-02T08:11:35.424Z,9.68
2022-11-02T08:14:11.140Z,9.80
2022-11-02T08:17:10.323Z,9.90
2022-11-02T08:24:25.421Z,10.08
2022-11-02T08:26:55.517Z,10.11
2022-11-02T08:32:47.270Z,10.44
2022-11-02T08:35:22.740Z,10.66
2022-11-02T08:38:12.391Z,10.68
2022-11-02T08:40:48.337Z,10.72
2022-11-02T08:43:19.828Z,10.79
2022-11-02T08:48:41.310Z,10.96
2022-11-02T08:51:12.354Z,11.23
2022-11-02T08:53:41.224Z,11.24
2022-11-02T08:56:08.792Z,11.40
2022-11-02T08:59:03.353Z,11.51
2022-11-02T09:01:45.004Z,11.50
2022-11-02T09:04:20.200Z,11.59
2022-11-02T09:06:55.106Z,11.61
2022-11-02T09:09:24.755Z,11.74
2022-11-02T09:11:59.927Z,11.67
2022-11-02T09:14:32.854Z,11.87
2022-11-02T09:17:02.143Z,11.57
2022-11-02T09:19:36.270Z,11.44
2022-11-02T09:22:06.428Z,11.36
2022-11-02T09:24:34.446Z,11.46
2022-11-02T09:27:04.706Z,11.68
2022-11-02T09:29:42.541Z,11.73
2022-11-02T09:32:16.354Z,11.92
2022-11-02T09:34:45.552Z,12.05
2022-11-02T09:37:18.254Z,12.22
2022-11-02T09:39:56.516Z,12.27
2022-11-02T09:42:36.106Z,12.18
2022-11-02T09:45:14.261Z,12.33
2022-11-02T09:48:16.066Z,12.30
2022-11-02T09:50:51.945Z,12.09
2022-11-02T09:53:43.584Z,12.04
2022-11-02T09:56:26.071Z,12.16
2022-11-02T09:59:18.385Z,12.05
2022-11-02T10:02:08.058Z,12.02
2022-11-02T10:05:23.206Z,12.03
2022-11-02T10:08:26.408Z,12.07
2022-11-02T10:11:19.471Z,12.24
2022-11-02T10:13:59.370Z,12.10
2022-11-02T10:16:39.889Z,12.21
2022-11-02T10:19:15.840Z,12.10
2022-11-02T10:21:49.353Z,12.12
2022-11-02T10:24:47.200Z,12.09
2022-11-02T10:27:35.654Z,11.89
2022-11-02T10:30:16.022Z,11.73
2022-11-02T10:32:45.858Z,11.86
2022-11-02T10:35:37.249Z,11.92
2022-11-02T10:38:58.203Z,11.98
2022-11-02T10:41:36.408Z,11.98
2022-11-02T10:44:27.218Z,11.96
2022-11-02T10:47:18.242Z,12.04
2022-11-02T10:50:34.192Z,11.94
2022-11-02T10:53:27.505Z,12.00
2022-11-02T10:56:09.788Z,12.07
2022-11-02T10:58:42.131Z,12.25
2022-11-02T11:01:14.147Z,12.33
2022-11-02T11:04:04.774Z,12.05
2022-11-02T11:06:44.174Z,11.90
2022-11-02T11:09:22.194Z,11.96
2022-11-02T11:12:48.051Z,12.10
2022-11-02T11:21:10.273Z,12.32
2022-11-02T11:23:41.211Z,12.33
2022-11-02T11:26:36.672Z,12.22
2022-11-02T11:29:25.261Z,12.27
2022-11-02T11:31:55.128Z,12.34
2022-11-02T11:34:47.246Z,12.22
2022-11-02T11:37:33.628Z,12.24
2022-11-02T11:40:23.001Z,12.09
2022-11-02T11:43:02.415Z,12.10
2022-11-02T11:45:35.020Z,12.13
2022-11-02T11:48:27.168Z,12.21
2022-11-02T11:50:56.414Z,12.06
2022-11-02T11:53:29.289Z,12.00
2022-11-02T11:55:59.957Z,11.72
2022-11-02T11:58:32.109Z,11.79
2022-11-02T12:01:47.682Z,11.87
2022-11-02T12:04:27.722Z,12.06
2022-11-02T12:07:20.557Z,12.01
2022-11-02T12:10:01.466Z,12.03
2022-11-02T12:12:40.898Z,12.00
2022-11-02T12:15:26.866Z,12.08
2022-11-02T12:18:20.613Z,12.23
2022-11-02T12:21:21.833Z,12.28
2022-11-02T12:24:17.115Z,12.28
2022-11-02T12:27:09.008Z,12.31
2022-11-02T12:30:01.219Z,12.39
2022-11-02T12:32:45.233Z,12.43
2022-11-02T12:35:53.274Z,12.45
2022-11-02T12:38:38.186Z,12.41
2022-11-02T12:41:12.708Z,12.45
2022-11-02T12:43:46.936Z,12.42
2022-11-02T12:46:49.107Z,12.38
2022-11-02T12:49:36.069Z,12.45
2022-11-02T12:52:45.735Z,12.50
2022-11-02T12:55:21.569Z,12.35
2022-11-02T12:58:04.309Z,12.27
2022-11-02T13:00:37.688Z,12.30
2022-11-02T13:03:33.225Z,12.22
2022-11-02T13:06:06.682Z,12.27
2022-11-02T13:09:09.783Z,12.27
2022-11-02T13:11:47.667Z,12.22
2022-11-02T13:14:22.397Z,12.18
2022-11-02T13:17:14.616Z,12.18
2022-11-02T13:19:50.633Z,12.13
2022-11-02T13:22:23.194Z,12.37
2022-11-02T13:24:57.634Z,12.29
2022-11-02T13:27:38.578Z,11.91
2022-11-02T13:30:19.283Z,12.04
2022-11-02T13:33:04.191Z,12.10
2022-11-02T13:35:45.716Z,11.93
2022-11-02T13:38:20.772Z,11.89
2022-11-02T13:41:04.570Z,11.88
2022-11-02T13:44:18.464Z,11.92
2022-11-02T13:46:58.884Z,11.94
2022-11-02T13:49:39.195Z,11.88
2022-11-02T13:52:15.503Z,11.91
2022-11-02T13:55:01.264Z,11.93
2022-11-02T13:57:33.576Z,11.82
2022-11-02T14:00:26.773Z,11.79
2022-11-02T14:03:04.209Z,11.84
2022-11-02T14:06:01.437Z,11.78
2022-11-02T14:08:55.871Z,11.83
2022-11-02T14:11:28.221Z,11.76
2022-11-02T14:13:55.860Z,11.83
2022-11-02T14:16:57.880Z,11.91
2022-11-02T14:19:34.516Z,11.89
2022-11-02T14:22:26.821Z,11.89
2022-11-02T14:25:18.375Z,11.93
2022-11-02T14:27:48.902Z,11.80
2022-11-02T14:30:48.565Z,11.87
2022-11-02T14:34:05.363Z,12.06
2022-11-02T14:37:22.016Z,12.01
2022-11-02T14:40:32.066Z,11.93
2022-11-02T14:43:49.499Z,12.10
2022-11-02T14:46:35.128Z,11.98
2022-11-02T14:49:18.644Z,11.97
2022-11-02T14:51:57.496Z,12.15
2022-11-02T14:54:33.409Z,12.11
2022-11-02T14:57:06.611Z,12.06
2022-11-02T14:59:45.808Z,12.07
2022-11-02T15:02:42.994Z,12.09
2022-11-02T15:05:30.651Z,12.19
2022-11-02T15:08:25.976Z,12.35
2022-11-02T15:10:55.702Z,12.34
2022-11-02T15:13:37.182Z,12.26
2022-11-02T15:16:11.906Z,12.18
2022-11-02T15:18:40.801Z,12.13
2022-11-02T15:21:15.286Z,12.21
2022-11-02T15:23:48.192Z,12.04
2022-11-02T15:26:55.660Z,11.98
2022-11-02T15:29:45.550Z,11.85
2022-11-02T15:32:26.894Z,11.85
2022-11-02T15:35:03.560Z,11.72
2022-11-02T15:37:50.336Z,11.65
2022-11-02T15:40:37.679Z,11.67
2022-11-02T15:43:37.258Z,11.55
2022-11-02T15:46:29.396Z,11.65
2022-11-02T15:49:29.167Z,11.71
2022-11-02T15:52:20.748Z,11.68
2022-11-02T15:55:10.876Z,11.67
2022-11-02T15:58:16.200Z,11.60
2022-11-02T16:01:36.184Z,11.69
2022-11-02T16:04:20.109Z,11.67
2022-11-02T16:06:49.758Z,11.69
2022-11-02T16:12:37.925Z,11.72
2022-11-02T16:15:20.876Z,11.70
2022-11-02T16:17:53.484Z,11.73
2022-11-02T16:20:35.346Z,11.78
2022-11-02T16:23:13.614Z,11.85
2022-11-02T16:25:48.249Z,11.83
2022-11-02T16:28:23.288Z,11.88
2022-11-02T16:31:18.527Z,11.94
2022-11-02T16:34:22.009Z,12.02
2022-11-02T16:36:51.270Z,11.90
2022-11-02T16:39:26.865Z,11.84
2022-11-02T16:42:00.240Z,11.86
2022-11-02T16:44:35.069Z,11.78
2022-11-02T16:47:08.242Z,11.79
2022-11-02T16:50:26.118Z,11.78
2022-11-02T16:53:12.453Z,11.71
2022-11-02T17:00:36.587Z,11.69
2022-11-02T17:06:27.681Z,11.59
2022-11-02T17:09:11.397Z,11.54
2022-11-02T17:11:46.947Z,11.55
2022-11-02T17:14:33.226Z,11.59
2022-11-02T17:17:42.835Z,11.57
2022-11-02T17:21:03.047Z,11.55
2022-11-02T17:24:35.676Z,11.58
2022-11-02T17:28:00.558Z,11.52
2022-11-02T17:31:01.903Z,11.57
2022-11-02T17:33:39.712Z,11.53
2022-11-02T17:36:52.492Z,11.55
2022-11-02T17:39:29.854Z,11.56
2022-11-02T17:46:02.003Z,11.59
2022-11-02T17:48:47.423Z,11.56
2022-11-02T17:51:35.468Z,11.55
2022-11-02T17:54:37.396Z,11.51
2022-11-02T17:57:29.186Z,11.53
2022-11-02T18:00:21.068Z,11.44
2022-11-02T18:03:29.906Z,11.43
2022-11-02T18:09:33.487Z,11.34
2022-11-02T18:12:15.112Z,11.41
2022-11-02T18:15:09.864Z,11.45
2022-11-02T18:18:07.552Z,11.45
2022-11-02T18:20:50.032Z,11.50
2022-11-02T18:24:01.331Z,11.46
2022-11-02T18:26:52.098Z,11.49
2022-11-02T18:32:47.786Z,11.59
2022-11-02T18:38:18.786Z,11.55
2022-11-02T18:41:29.941Z,11.55
2022-11-02T18:44:24.000Z,11.33
2022-11-02T18:47:56.172Z,11.38
2022-11-02T18:53:50.834Z,11.33
2022-11-02T18:56:41.762Z,11.24
2022-11-02T19:03:16.837Z,11.11
2022-11-02T19:06:40.421Z,11.14
2022-11-02T19:12:35.339Z,11.05
2022-11-02T19:15:19.577Z,11.02
2022-11-02T19:18:27.466Z,10.85
2022-11-02T19:22:21.898Z,10.91
2022-11-02T19:28:54.688Z,10.86
2022-11-02T19:31:57.209Z,10.84
2022-11-02T19:34:50.844Z,10.75
2022-11-02T19:38:14.607Z,10.81
2022-11-02T19:41:27.590Z,10.79
2022-11-02T19:44:03.974Z,10.80
2022-11-02T19:47:16.020Z,10.87
2022-11-02T19:50:10.293Z,10.95
2022-11-02T19:53:15.199Z,10.97
2022-11-02T19:56:38.763Z,10.92
2022-11-02T19:59:50.084Z,10.99
2022-11-02T20:07:34.370Z,10.90
2022-11-02T20:11:34.367Z,10.93
2022-11-02T20:18:19.000Z,11.05
2022-11-02T20:21:56.181Z,11.14
2022-11-02T20:25:46.674Z,11.16
2022-11-02T20:29:20.074Z,11.23
2022-11-02T20:32:47.520Z,11.10
2022-11-02T20:35:44.981Z,11.16
2022-11-02T20:39:41.860Z,11.14
2022-11-02T20:44:33.605Z,11.22
2022-11-02T20:51:57.834Z,11.31
2022-11-02T20:55:46.692Z,11.31
2022-11-02T20:59:02.967Z,11.28
2022-11-02T21:01:51.175Z,11.27
2022-11-02T21:04:54.405Z,11.25
2022-11-02T21:08:12.966Z,11.25
2022-11-02T21:10:57.078Z,11.27
2022-11-02T21:16:50.653Z,11.26
2022-11-02T21:19:22.565Z,11.27
2022-11-02T21:22:29.289Z,11.16
2022-11-02T21:25:41.561Z,11.07
2022-11-02T21:28:41.547Z,10.91
2022-11-02T21:31:21.989Z,11.07
2022-11-02T21:34:00.936Z,11.07
2022-11-02T21:36:32.556Z,11.09
2022-11-02T21:39:36.905Z,11.15
2022-11-02T21:42:12.876Z,11.18
2022-11-02T21:44:50.976Z,11.23
2022-11-02T21:47:34.213Z,11.17
2022-11-02T21:54:41.268Z,11.32
2022-11-02T21:57:21.174Z,11.28
2022-11-02T22:00:22.603Z,11.32
2022-11-02T22:03:25.436Z,11.27
2022-11-02T22:06:10.369Z,11.26
2022-11-02T22:09:30.710Z,11.23
2022-11-02T22:19:50.569Z,11.22
2022-11-02T22:22:22.472Z,11.32
2022-11-02T22:25:46.906Z,11.37
2022-11-02T22:31:43.549Z,11.40
2022-11-02T22:34:24.386Z,11.44
2022-11-02T22:40:26.895Z,11.39
2022-11-02T22:43:54.467Z,11.43
2022-11-02T22:46:29.545Z,11.44
2022-11-02T22:49:19.270Z,11.43
2022-11-02T22:52:17.450Z,11.36
2022-11-02T22:55:14.802Z,11.38
2022-11-02T22:57:48.251Z,11.38
2022-11-02T23:00:52.474Z,11.42
2022-11-02T23:03:30.039Z,11.49
2022-11-02T23:10:44.683Z,11.53
2022-11-02T23:18:18.247Z,11.50
2022-11-02T23:20:56.386Z,11.50
2022-11-02T23:24:03.834Z,11.51
2022-11-02T23:27:32.279Z,11.58
2022-11-02T23:31:03.728Z,11.62
2022-11-02T23:33:50.942Z,11.68
2022-11-02T23:36:22.829Z,11.57
2022-11-02T23:39:12.600Z,11.58
2022-11-02T23:41:44.661Z,11.49
2022-11-02T23:44:19.400Z,11.45
2022-11-02T23:46:59.694Z,11.46
2022-11-02T23:49:55.060Z,11.44
2022-11-02T23:52:46.001Z,11.40
2022-11-02T23:55:40.494Z,11.42
2022-11-02T23:58:18.896Z,11.41
